createdAt,value
2018-11-14T00:02:14.486Z,12.80
2018-11-14T00:04:42.901Z,13.75
2018-11-14T00:07:11.071Z,12.80
2018-11-14T00:09:39.418Z,12.73
2018-11-14T00:12:07.608Z,12.80
2018-11-14T00:14:36.015Z,12.58
2018-11-14T00:17:04.366Z,12.73
2018-11-14T00:19:32.722Z,12.40
2018-11-14T00:22:00.890Z,12.23
2018-11-14T00:24:29.378Z,13.03
2018-11-14T00:26:57.595Z,14.28
2018-11-14T00:29:25.848Z,12.93
2018-11-14T00:31:54.223Z,13.70
2018-11-14T00:34:22.456Z,13.70
2018-11-14T00:36:50.763Z,13.03
2018-11-14T00:39:18.974Z,13.80
2018-11-14T00:41:47.248Z,13.98
2018-11-14T00:44:15.417Z,13.95
2018-11-14T00:46:43.597Z,12.45
2018-11-14T00:49:11.794Z,12.80
2018-11-14T00:51:40.055Z,12.18
2018-11-14T00:54:08.244Z,11.93
2018-11-14T00:56:36.483Z,10.98
2018-11-14T00:59:04.918Z,11.33
2018-11-14T01:01:33.206Z,12.40
2018-11-14T01:04:01.437Z,12.45
2018-11-14T01:06:29.801Z,14.60
2018-11-14T01:08:57.956Z,13.27
2018-11-14T01:11:26.140Z,13.65
2018-11-14T01:13:54.484Z,14.43
2018-11-14T01:16:22.853Z,14.63
2018-11-14T01:18:51.041Z,15.15
2018-11-14T01:21:19.183Z,14.68
2018-11-14T01:23:47.536Z,14.15
2018-11-14T01:26:15.788Z,15.38
2018-11-14T01:28:43.964Z,14.95
2018-11-14T01:31:12.210Z,15.32
2018-11-14T01:33:40.403Z,14.87
2018-11-14T01:36:08.582Z,15.15
2018-11-14T01:38:37.882Z,14.58
2018-11-14T01:41:06.290Z,14.45
2018-11-14T01:43:34.432Z,14.13
2018-11-14T01:46:02.745Z,15.05
2018-11-14T01:48:30.978Z,15.03
2018-11-14T01:50:59.216Z,14.40
2018-11-14T01:53:27.550Z,13.48
2018-11-14T01:55:55.710Z,13.05
2018-11-14T01:58:23.928Z,12.98
2018-11-14T02:00:52.161Z,12.68
2018-11-14T02:03:20.405Z,12.70
2018-11-14T02:05:48.603Z,13.35
2018-11-14T02:08:16.865Z,13.03
2018-11-14T02:10:45.063Z,13.43
2018-11-14T02:13:13.308Z,14.20
2018-11-14T02:15:41.504Z,15.32
2018-11-14T02:18:09.737Z,15.80
2018-11-14T02:20:37.893Z,15.90
2018-11-14T02:23:06.089Z,15.40
2018-11-14T02:25:34.268Z,15.23
2018-11-14T02:28:02.441Z,15.60
2018-11-14T02:30:30.808Z,15.53
2018-11-14T02:32:58.998Z,14.87
2018-11-14T02:35:27.240Z,15.05
2018-11-14T02:37:55.770Z,15.43
2018-11-14T02:40:23.943Z,15.83
2018-11-14T02:42:52.148Z,16.77
2018-11-14T02:45:20.324Z,17.73
2018-11-14T02:47:48.542Z,15.40
2018-11-14T02:50:17.631Z,15.13
2018-11-14T02:52:45.868Z,15.35
2018-11-14T02:55:15.204Z,16.05
2018-11-14T02:57:43.911Z,16.82
2018-11-14T03:00:20.922Z,17.15
2018-11-14T03:02:49.204Z,15.98
2018-11-14T03:05:17.468Z,15.60
2018-11-14T03:07:45.671Z,16.85
2018-11-14T03:10:16.221Z,16.85
2018-11-14T03:12:44.457Z,19.82
2018-11-14T03:15:14.912Z,21.13
2018-11-14T03:17:43.163Z,21.35
2018-11-14T03:20:13.625Z,18.40
2018-11-14T03:22:41.877Z,17.00
2018-11-14T03:25:11.420Z,15.57
2018-11-14T03:27:39.675Z,14.40
2018-11-14T03:30:11.245Z,14.50
2018-11-14T03:32:40.108Z,15.10
2018-11-14T03:35:09.061Z,14.10
2018-11-14T03:37:37.623Z,16.02
2018-11-14T03:40:06.890Z,17.10
2018-11-14T03:42:35.119Z,17.67
2018-11-14T03:45:03.396Z,18.50
2018-11-14T03:47:31.633Z,16.80
2018-11-14T03:49:59.845Z,17.82
2018-11-14T03:52:28.087Z,18.35
2018-11-14T03:54:56.427Z,18.33
2018-11-14T03:57:24.710Z,25.50
2018-11-14T03:59:52.973Z,23.50
2018-11-14T04:02:21.292Z,23.15
2018-11-14T04:04:49.513Z,30.23
2018-11-14T04:07:17.740Z,40.28
2018-11-14T04:09:49.580Z,31.97
2018-11-14T04:12:17.821Z,32.75
2018-11-14T04:14:46.065Z,30.82
2018-11-14T04:17:14.470Z,32.75
2018-11-14T04:19:42.788Z,34.95
2018-11-14T04:22:11.158Z,28.70
2018-11-14T04:24:39.376Z,40.38
2018-11-14T04:27:07.720Z,32.90
2018-11-14T04:29:35.889Z,38.05
2018-11-14T04:32:04.119Z,35.15
2018-11-14T04:34:32.327Z,40.38
2018-11-14T04:37:00.695Z,35.05
2018-11-14T04:39:28.964Z,37.88
2018-11-14T04:41:57.148Z,31.60
2018-11-14T04:44:25.404Z,31.23
2018-11-14T04:46:53.617Z,34.20
2018-11-14T04:49:21.943Z,38.28
2018-11-14T04:51:51.179Z,34.50
2018-11-14T04:54:19.619Z,22.67
2018-11-14T04:56:47.893Z,22.37
2018-11-14T04:59:16.159Z,26.03
2018-11-14T05:01:44.356Z,25.20
2018-11-14T05:04:22.184Z,26.52
2018-11-14T05:06:50.387Z,23.83
2018-11-14T05:09:18.628Z,24.77
2018-11-14T05:11:47.161Z,29.77
2018-11-14T05:14:15.399Z,23.67
2018-11-14T05:16:43.821Z,23.30
2018-11-14T05:19:12.200Z,25.12
2018-11-14T05:21:40.477Z,25.88
2018-11-14T05:24:08.753Z,29.00
2018-11-14T05:26:36.942Z,22.67
2018-11-14T05:29:05.252Z,24.65
2018-11-14T05:31:33.541Z,22.20
2018-11-14T05:34:01.736Z,21.40
2018-11-14T05:36:29.988Z,20.68
2018-11-14T05:38:58.325Z,20.75
2018-11-14T05:41:26.518Z,25.20
2018-11-14T05:43:55.256Z,20.20
2018-11-14T05:46:23.777Z,20.00
2018-11-14T05:48:52.016Z,18.55
2018-11-14T05:51:20.333Z,24.45
2018-11-14T05:53:48.615Z,19.30
2018-11-14T05:56:16.864Z,21.90
2018-11-14T05:58:45.043Z,19.52
2018-11-14T06:01:13.230Z,20.77
2018-11-14T06:03:41.456Z,19.50
2018-11-14T06:06:09.800Z,23.12
2018-11-14T06:08:38.112Z,23.50
2018-11-14T06:11:06.374Z,25.95
2018-11-14T06:13:34.600Z,19.55
2018-11-14T06:16:02.885Z,20.85
2018-11-14T06:18:31.227Z,27.82
2018-11-14T06:20:59.399Z,24.85
2018-11-14T06:23:27.653Z,19.75
2018-11-14T06:25:55.895Z,24.35
2018-11-14T06:28:24.070Z,27.90
2018-11-14T06:30:52.232Z,28.23
2018-11-14T06:33:20.597Z,29.55
2018-11-14T06:35:48.820Z,22.40
2018-11-14T06:38:17.052Z,27.25
2018-11-14T06:40:45.289Z,25.70
2018-11-14T06:43:15.034Z,32.15
2018-11-14T06:45:43.248Z,24.75
2018-11-14T06:48:11.459Z,20.80
2018-11-14T06:50:39.814Z,23.87
2018-11-14T06:53:08.052Z,22.10
2018-11-14T06:55:36.489Z,22.50
2018-11-14T06:58:04.713Z,27.27
2018-11-14T07:00:34.322Z,29.70
2018-11-14T07:03:03.892Z,32.25
2018-11-14T07:05:32.183Z,29.23
2018-11-14T07:08:00.280Z,23.27
2018-11-14T07:10:30.023Z,26.87
2018-11-14T07:13:03.554Z,24.67
2018-11-14T07:15:31.845Z,28.57
2018-11-14T07:18:00.056Z,33.15
2018-11-14T07:20:30.561Z,27.30
2018-11-14T07:22:58.725Z,24.70
2018-11-14T07:25:26.925Z,27.13
2018-11-14T07:27:55.318Z,26.12
2018-11-14T07:30:24.740Z,27.05
2018-11-14T07:32:55.427Z,23.52
2018-11-14T07:35:23.653Z,29.95
2018-11-14T07:38:32.653Z,26.77
2018-11-14T07:41:01.872Z,23.50
2018-11-14T07:43:30.204Z,29.57
2018-11-14T07:45:58.543Z,32.00
2018-11-14T07:48:26.770Z,28.12
2018-11-14T07:50:55.017Z,30.45
2018-11-14T07:53:23.253Z,29.32
2018-11-14T07:55:51.411Z,33.30
2018-11-14T07:58:19.912Z,29.63
2018-11-14T08:00:48.099Z,26.62
2018-11-14T08:03:16.376Z,27.63
2018-11-14T08:05:44.547Z,26.68
2018-11-14T08:08:12.901Z,25.65
2018-11-14T08:10:41.212Z,26.48
2018-11-14T08:15:50.197Z,33.80
2018-11-14T08:18:18.463Z,30.92
2018-11-14T08:20:46.721Z,25.12
2018-11-14T08:23:15.073Z,25.23
2018-11-14T08:25:43.257Z,24.65
2018-11-14T08:28:11.516Z,27.85
2018-11-14T08:30:39.701Z,28.92
2018-11-14T08:33:08.104Z,27.20
2018-11-14T08:35:36.357Z,28.70
2018-11-14T08:38:04.555Z,25.88
2018-11-14T08:40:32.757Z,27.35
2018-11-14T08:43:01.044Z,27.20
2018-11-14T08:45:29.328Z,27.37
2018-11-14T08:47:57.509Z,25.27
2018-11-14T08:50:25.896Z,27.35
2018-11-14T08:52:54.081Z,26.35
2018-11-14T08:55:22.253Z,32.98
2018-11-14T08:57:50.461Z,26.10
2018-11-14T09:00:20.291Z,24.98
2018-11-14T09:02:49.096Z,26.93
2018-11-14T09:05:17.476Z,23.65
2018-11-14T09:07:45.927Z,27.00
2018-11-14T09:10:16.491Z,26.12
2018-11-14T09:12:45.088Z,24.33
2018-11-14T09:15:14.641Z,21.75
2018-11-14T09:17:43.031Z,22.75
2018-11-14T09:20:13.337Z,23.92
2018-11-14T09:22:42.017Z,24.02
2018-11-14T09:25:13.463Z,24.45
2018-11-14T09:27:42.780Z,25.92
2018-11-14T09:30:13.433Z,22.37
2018-11-14T09:32:41.644Z,26.23
2018-11-14T09:35:11.503Z,23.80
2018-11-14T09:37:40.061Z,26.15
2018-11-14T09:40:09.609Z,24.82
2018-11-14T09:42:38.465Z,22.75
2018-11-14T09:45:08.286Z,25.92
2018-11-14T09:47:36.564Z,18.12
2018-11-14T09:50:06.113Z,22.00
2018-11-14T09:52:34.291Z,19.42
2018-11-14T09:55:02.592Z,19.25
2018-11-14T09:57:30.842Z,14.98
2018-11-14T09:59:59.051Z,19.17
2018-11-14T10:02:27.298Z,20.15
2018-11-14T10:04:55.519Z,20.47
2018-11-14T10:07:23.768Z,20.40
2018-11-14T10:09:51.962Z,18.77
2018-11-14T10:12:20.146Z,18.37
2018-11-14T10:14:48.357Z,20.10
2018-11-14T10:17:16.562Z,18.25
2018-11-14T10:19:44.763Z,19.80
2018-11-14T10:22:12.976Z,18.07
2018-11-14T10:24:41.176Z,18.03
2018-11-14T10:27:09.564Z,21.12
2018-11-14T10:29:37.760Z,20.80
2018-11-14T10:32:05.920Z,20.65
2018-11-14T10:34:34.120Z,19.47
2018-11-14T10:37:02.268Z,17.92
2018-11-14T10:39:30.512Z,18.20
2018-11-14T10:41:58.653Z,20.10
2018-11-14T10:44:26.820Z,20.20
2018-11-14T10:46:55.001Z,18.30
2018-11-14T10:49:23.369Z,19.73
2018-11-14T10:51:51.536Z,20.32
2018-11-14T10:54:19.684Z,21.65
2018-11-14T10:56:47.847Z,21.10
2018-11-14T10:59:16.052Z,20.70
2018-11-14T11:02:47.365Z,20.60
2018-11-14T11:05:21.097Z,21.20
2018-11-14T11:07:54.750Z,20.50
2018-11-14T11:10:28.627Z,23.27
2018-11-14T11:13:05.041Z,24.95
2018-11-14T11:15:39.000Z,24.75
2018-11-14T11:18:09.476Z,28.10
2018-11-14T11:20:37.676Z,24.77
2018-11-14T11:23:05.949Z,25.43
2018-11-14T11:25:34.103Z,28.45
2018-11-14T11:28:02.337Z,30.48
2018-11-14T11:30:30.502Z,28.95
2018-11-14T11:32:58.669Z,35.30
2018-11-14T11:35:27.005Z,34.35
2018-11-14T11:37:55.179Z,35.07
2018-11-14T11:40:23.334Z,36.80
2018-11-14T11:45:26.222Z,45.70
2018-11-14T11:47:54.715Z,43.87
2018-11-14T11:50:23.839Z,46.70
2018-11-14T11:52:52.168Z,52.33
2018-11-14T11:55:20.349Z,47.23
2018-11-14T11:57:48.531Z,54.93
2018-11-14T12:00:16.800Z,53.30
2018-11-14T12:02:44.938Z,53.60
2018-11-14T12:05:14.184Z,52.98
2018-11-14T12:07:43.014Z,48.80
2018-11-14T12:10:12.907Z,50.12
2018-11-14T12:12:41.629Z,48.60
2018-11-14T12:15:11.092Z,55.33
2018-11-14T12:17:39.761Z,47.95
2018-11-14T12:20:09.085Z,53.33
2018-11-14T12:22:38.211Z,50.52
2018-11-14T12:25:07.968Z,47.33
2018-11-14T12:27:36.258Z,46.50
2018-11-14T12:30:07.503Z,45.83
2018-11-14T12:32:35.558Z,41.90
2018-11-14T12:35:04.050Z,42.58
2018-11-14T12:37:32.257Z,43.78
2018-11-14T12:40:00.487Z,42.05
2018-11-14T12:42:28.769Z,41.88
2018-11-14T12:44:57.048Z,34.20
2018-11-14T12:47:25.238Z,37.88
2018-11-14T12:49:53.546Z,39.50
2018-11-14T12:52:21.737Z,40.40
2018-11-14T12:54:50.106Z,44.33
2018-11-14T12:57:18.315Z,42.70
2018-11-14T12:59:46.562Z,42.05
2018-11-14T13:02:14.747Z,43.80
2018-11-14T13:04:43.212Z,42.65
2018-11-14T13:07:11.486Z,43.60
2018-11-14T13:09:39.696Z,45.12
2018-11-14T13:12:07.936Z,48.40
2018-11-14T13:14:36.120Z,47.80
2018-11-14T13:17:04.393Z,50.08
2018-11-14T13:19:32.659Z,52.03
2018-11-14T13:22:12.059Z,50.08
2018-11-14T13:24:40.344Z,48.02
2018-11-14T13:27:09.218Z,48.17
2018-11-14T13:29:37.434Z,46.63
2018-11-14T13:32:05.734Z,47.83
2018-11-14T13:34:33.925Z,47.60
2018-11-14T13:37:02.178Z,47.62
2018-11-14T13:39:30.433Z,47.17
2018-11-14T13:41:58.672Z,48.60
2018-11-14T13:44:26.841Z,48.58
2018-11-14T13:46:55.042Z,49.83
2018-11-14T13:49:23.698Z,50.23
2018-11-14T13:51:51.770Z,51.20
2018-11-14T13:54:19.930Z,49.75
2018-11-14T13:56:48.940Z,52.03
2018-11-14T13:59:17.135Z,49.88
2018-11-14T14:01:45.424Z,49.83
2018-11-14T14:04:13.753Z,49.40
2018-11-14T14:06:41.982Z,48.37
2018-11-14T14:09:11.995Z,48.58
2018-11-14T14:11:40.330Z,47.65
2018-11-14T14:14:12.541Z,45.85
2018-11-14T14:16:42.075Z,45.85
2018-11-14T14:19:10.432Z,45.83
2018-11-14T14:21:38.804Z,47.58
2018-11-14T14:24:07.301Z,47.83
2018-11-14T14:26:36.400Z,47.23
2018-11-14T14:29:04.774Z,47.03
2018-11-14T14:31:33.195Z,47.17
2018-11-14T14:34:01.534Z,46.58
2018-11-14T14:36:29.764Z,47.10
2018-11-14T14:38:57.959Z,46.90
2018-11-14T14:41:26.190Z,48.13
2018-11-14T14:43:54.487Z,48.90
2018-11-14T14:46:28.436Z,45.40
2018-11-14T14:48:56.886Z,46.83
2018-11-14T14:51:27.796Z,49.55
2018-11-14T14:53:57.387Z,49.98
2018-11-14T14:56:30.152Z,49.40
2018-11-14T14:58:59.456Z,48.25
2018-11-14T15:01:30.019Z,48.53
2018-11-14T15:03:58.357Z,48.83
2018-11-14T15:06:26.527Z,49.03
2018-11-14T15:08:56.788Z,49.17
2018-11-14T15:11:25.572Z,47.60
2018-11-14T15:13:55.076Z,50.20
2018-11-14T15:16:23.264Z,52.33
2018-11-14T15:18:51.469Z,48.87
2018-11-14T15:21:19.682Z,50.30
2018-11-14T15:23:47.923Z,49.53
2018-11-14T15:26:16.197Z,52.83
2018-11-14T15:28:44.487Z,52.55
2018-11-14T15:31:12.716Z,52.83
2018-11-14T15:33:40.919Z,49.97
2018-11-14T15:36:09.330Z,50.30
2018-11-14T15:38:37.552Z,49.08
2018-11-14T15:41:05.954Z,48.90
2018-11-14T15:43:34.140Z,49.15
2018-11-14T15:46:02.377Z,51.25
2018-11-14T15:48:30.893Z,50.92
2018-11-14T15:51:01.716Z,50.90
2018-11-14T15:53:29.969Z,51.53
2018-11-14T15:55:58.162Z,53.50
2018-11-14T15:58:26.415Z,53.10
2018-11-14T16:00:54.649Z,57.30
2018-11-14T16:03:22.838Z,54.60
2018-11-14T16:05:51.058Z,58.80
2018-11-14T16:08:19.282Z,54.80
2018-11-14T16:10:47.479Z,52.80
2018-11-14T16:15:54.863Z,58.25
2018-11-14T16:18:23.066Z,50.78
2018-11-14T16:20:51.240Z,49.25
2018-11-14T16:23:19.484Z,48.70
2018-11-14T16:25:47.628Z,50.07
2018-11-14T16:28:15.836Z,52.48
2018-11-14T16:30:44.033Z,49.15
2018-11-14T16:33:12.174Z,48.13
2018-11-14T16:35:40.420Z,48.28
2018-11-14T16:38:08.604Z,50.55
2018-11-14T16:40:36.773Z,47.58
2018-11-14T16:43:06.472Z,46.42
2018-11-14T16:45:34.644Z,48.17
2018-11-14T16:48:02.863Z,43.98
2018-11-14T16:50:31.068Z,41.05
2018-11-14T16:52:59.345Z,40.05
2018-11-14T16:55:27.605Z,38.13
2018-11-14T16:57:56.484Z,38.73
2018-11-14T17:00:28.794Z,37.98
2018-11-14T17:02:56.975Z,37.03
2018-11-14T17:05:26.405Z,34.45
2018-11-14T17:07:54.680Z,31.17
2018-11-14T17:10:23.303Z,27.70
2018-11-14T17:12:53.005Z,26.27
2018-11-14T17:15:22.607Z,25.35
2018-11-14T17:17:50.804Z,25.77
2018-11-14T17:20:19.780Z,25.57
2018-11-14T17:22:48.565Z,26.45
2018-11-14T17:25:17.446Z,26.77
2018-11-14T17:27:46.108Z,24.95
2018-11-14T17:30:15.867Z,24.65
2018-11-14T17:32:44.191Z,25.82
2018-11-14T17:35:13.232Z,25.88
2018-11-14T17:37:42.350Z,25.87
2018-11-14T17:40:16.881Z,24.87
2018-11-14T17:42:45.775Z,26.23
2018-11-14T17:45:17.539Z,24.57
2018-11-14T17:47:46.201Z,25.95
2018-11-14T17:50:18.435Z,26.50
2018-11-14T17:52:47.499Z,27.15
2018-11-14T17:55:16.373Z,26.97
2018-11-14T17:57:44.607Z,26.73
2018-11-14T18:00:15.375Z,27.77
2018-11-14T18:02:44.609Z,26.40
2018-11-14T18:05:14.269Z,27.87
2018-11-14T18:07:43.970Z,28.20
2018-11-14T18:10:14.414Z,28.70
2018-11-14T18:12:43.539Z,28.05
2018-11-14T18:15:12.275Z,27.90
2018-11-14T18:17:41.057Z,28.45
2018-11-14T18:20:11.815Z,28.67
2018-11-14T18:22:40.576Z,28.57
2018-11-14T18:25:08.998Z,28.35
2018-11-14T18:27:37.153Z,28.55
2018-11-14T18:30:07.864Z,29.95
2018-11-14T18:32:36.040Z,28.67
2018-11-14T18:35:04.814Z,29.82
2018-11-14T18:37:33.055Z,30.30
2018-11-14T18:40:01.277Z,29.05
2018-11-14T18:42:29.452Z,30.23
2018-11-14T18:44:57.583Z,30.32
2018-11-14T18:47:25.855Z,30.17
2018-11-14T18:49:54.090Z,30.13
2018-11-14T18:52:22.333Z,29.92
2018-11-14T18:54:50.556Z,30.50
2018-11-14T18:57:18.756Z,30.27
2018-11-14T18:59:46.923Z,30.23
2018-11-14T19:02:15.074Z,30.37
2018-11-14T19:04:43.471Z,30.75
2018-11-14T19:07:11.646Z,30.70
2018-11-14T19:09:40.129Z,29.42
2018-11-14T19:12:08.567Z,29.70
2018-11-14T19:14:36.713Z,30.95
2018-11-14T19:17:05.078Z,31.20
2018-11-14T19:19:33.460Z,31.52
2018-11-14T19:22:02.192Z,30.88
2018-11-14T19:24:30.566Z,31.17
2018-11-14T19:26:59.068Z,30.72
2018-11-14T19:29:27.396Z,29.82
2018-11-14T19:31:55.921Z,30.88
2018-11-14T19:34:24.041Z,31.10
2018-11-14T19:36:52.466Z,31.67
2018-11-14T19:39:20.884Z,29.98
2018-11-14T19:41:50.223Z,30.80
2018-11-14T19:44:18.451Z,31.00
2018-11-14T19:46:46.769Z,32.08
2018-11-14T19:49:15.258Z,30.10
2018-11-14T19:51:43.631Z,31.02
2018-11-14T19:54:11.977Z,31.23
2018-11-14T19:56:40.204Z,31.68
2018-11-14T19:59:08.520Z,31.00
2018-11-14T20:01:36.709Z,30.10
2018-11-14T20:04:04.978Z,30.97
2018-11-14T20:06:33.272Z,31.62
2018-11-14T20:09:01.556Z,32.60
2018-11-14T20:11:29.876Z,31.75
2018-11-14T20:13:58.167Z,29.75
2018-11-14T20:16:26.574Z,31.12
2018-11-14T20:18:54.748Z,31.40
2018-11-14T20:21:22.932Z,31.02
2018-11-14T20:23:51.151Z,29.50
2018-11-14T20:26:19.728Z,29.60
2018-11-14T20:28:47.914Z,30.65
2018-11-14T20:31:16.395Z,30.82
2018-11-14T20:33:44.679Z,28.40
2018-11-14T20:36:12.928Z,27.73
2018-11-14T20:38:41.145Z,29.02
2018-11-14T20:41:09.305Z,28.67
2018-11-14T20:43:37.645Z,28.83
2018-11-14T20:46:06.233Z,29.23
2018-11-14T20:48:34.478Z,28.30
2018-11-14T20:51:02.827Z,29.25
2018-11-14T20:53:31.316Z,29.18
2018-11-14T20:56:00.391Z,28.92
2018-11-14T20:58:28.809Z,29.52
2018-11-14T21:00:57.152Z,28.67
2018-11-14T21:03:25.521Z,28.70
2018-11-14T21:05:53.853Z,28.65
2018-11-14T21:08:22.115Z,28.70
2018-11-14T21:10:50.423Z,29.65
2018-11-14T21:13:18.707Z,30.15
2018-11-14T21:15:46.873Z,30.25
2018-11-14T21:18:15.095Z,29.30
2018-11-14T21:20:43.314Z,29.10
2018-11-14T21:23:11.673Z,29.50
2018-11-14T21:25:40.008Z,29.05
2018-11-14T21:28:08.214Z,29.23
2018-11-14T21:30:36.411Z,28.57
2018-11-14T21:33:04.982Z,29.65
2018-11-14T21:35:35.527Z,29.20
2018-11-14T21:38:05.212Z,29.17
2018-11-14T21:40:33.448Z,29.50
2018-11-14T21:43:01.680Z,29.32
2018-11-14T21:45:30.391Z,29.30
2018-11-14T21:48:04.013Z,30.12
2018-11-14T21:50:32.659Z,29.23
2018-11-14T21:53:00.875Z,29.90
2018-11-14T21:55:29.239Z,28.87
2018-11-14T21:57:57.383Z,29.40
2018-11-14T22:00:32.864Z,28.92
2018-11-14T22:03:01.172Z,28.77
2018-11-14T22:05:29.451Z,29.40
2018-11-14T22:07:57.632Z,28.17
2018-11-14T22:10:26.655Z,28.47
2018-11-14T22:12:54.896Z,28.55
2018-11-14T22:15:24.197Z,28.57
2018-11-14T22:17:52.689Z,28.50
2018-11-14T22:20:22.285Z,29.10
2018-11-14T22:22:50.614Z,28.92
2018-11-14T22:25:20.098Z,27.85
2018-11-14T22:27:48.429Z,29.27
2018-11-14T22:30:19.038Z,29.18
2018-11-14T22:32:47.388Z,28.50
2018-11-14T22:35:16.725Z,27.17
2018-11-14T22:37:44.897Z,28.25
2018-11-14T22:40:14.664Z,28.75
2018-11-14T22:42:43.291Z,26.35
2018-11-14T22:45:13.777Z,27.70
2018-11-14T22:47:42.358Z,26.77
2018-11-14T22:50:11.934Z,26.20
2018-11-14T22:52:41.081Z,26.73
2018-11-14T22:55:10.383Z,26.45
2018-11-14T22:57:38.603Z,25.50
2018-11-14T23:00:14.133Z,26.83
2018-11-14T23:02:42.470Z,26.37
2018-11-14T23:05:10.691Z,25.90
2018-11-14T23:07:38.900Z,25.92
2018-11-14T23:10:07.141Z,25.30
2018-11-14T23:12:35.423Z,25.12
2018-11-14T23:15:03.604Z,24.57
2018-11-14T23:17:31.974Z,25.30
2018-11-14T23:20:00.237Z,25.45
2018-11-14T23:22:28.430Z,24.77
2018-11-14T23:24:56.618Z,24.72
2018-11-14T23:27:24.893Z,24.43
2018-11-14T23:29:53.283Z,25.10
2018-11-14T23:32:21.510Z,24.05
2018-11-14T23:34:55.139Z,23.98
2018-11-14T23:37:23.407Z,23.93
2018-11-14T23:39:51.600Z,23.75
2018-11-14T23:42:19.764Z,23.70
2018-11-14T23:44:47.928Z,23.62
2018-11-14T23:47:16.112Z,23.33
2018-11-14T23:49:44.288Z,22.52
2018-11-14T23:52:12.636Z,22.55
2018-11-14T23:54:40.808Z,22.58
2018-11-14T23:57:09.005Z,22.82
2018-11-14T23:59:37.196Z,22.65
